Observation data for Tulia on 07/16/2019      Previous  Date  Next       Current Mesonet Observations  Soil Data  Daily Summary Page  Observations in Plain Language
KTIS 160500Z 14007KT 24/15 A3003 RMK A01 T02440145  RH  057%=      5-min Rain = 0
KTIS 160505Z 14007KT 24/15 A3003 RMK A01 T02430146  RH  057%=      5-min Rain = 0
KTIS 160510Z 14006KT 24/15 A3003 RMK A01 T02400147  RH  059%=      5-min Rain = 0
KTIS 160515Z 13006KT 24/15 A3003 RMK A01 T02400147  RH  059%=      5-min Rain = 0
KTIS 160520Z 14006KT 24/15 A3003 RMK A01 T02390148  RH  059%=      5-min Rain = 0
KTIS 160525Z 14006KT 24/15 A3003 RMK A01 T02380148  RH  060%=      5-min Rain = 0
KTIS 160530Z 15006KT 24/15 A3003 RMK A01 T02360148  RH  060%=      5-min Rain = 0
KTIS 160535Z 15007KT 24/15 A3003 RMK A01 T02360148  RH  060%=      5-min Rain = 0
KTIS 160540Z 15006KT 23/15 A3003 RMK A01 T02340150  RH  062%=      5-min Rain = 0
KTIS 160545Z 15006KT 23/15 A3003 RMK A01 T02310151  RH  063%=      5-min Rain = 0
KTIS 160550Z 15007KT 23/15 A3003 RMK A01 T02290150  RH  064%=      5-min Rain = 0
KTIS 160555Z 15007KT 23/15 A3003 RMK A01 T02290150  RH  064%=      5-min Rain = 0
KTIS 160600Z 15006KT 23/15 A3003 RMK A01 T02290152  RH  065%=      5-min Rain = 0
KTIS 160605Z 16006KT 23/15 A3003 RMK A01 T02280154  RH  066%=      5-min Rain = 0
KTIS 160610Z 16006KT 23/15 A3003 RMK A01 T02290153  RH  065%=      5-min Rain = 0
KTIS 160615Z 16007KT 23/15 A3003 RMK A01 T02290154  RH  066%=      5-min Rain = 0
KTIS 160620Z 16007KT 23/16 A3002 RMK A01 T02280155  RH  067%=      5-min Rain = 0
KTIS 160625Z 16007KT 23/16 A3002 RMK A01 T02280156  RH  067%=      5-min Rain = 0
KTIS 160630Z 16007KT 23/16 A3002 RMK A01 T02310157  RH  066%=      5-min Rain = 0
KTIS 160635Z 16007KT 23/16 A3002 RMK A01 T02320158  RH  066%=      5-min Rain = 0
KTIS 160640Z 16007KT 23/16 A3002 RMK A01 T02320159  RH  067%=      5-min Rain = 0
KTIS 160645Z 16007KT 23/16 A3003 RMK A01 T02320159  RH  066%=      5-min Rain = 0
KTIS 160650Z 16008KT 23/16 A3003 RMK A01 T02330159  RH  066%=      5-min Rain = 0
KTIS 160655Z 16009KT 23/16 A3003 RMK A01 T02330159  RH  066%=      5-min Rain = 0
KTIS 160700Z 17008KT 23/16 A3003 RMK A01 T02340159  RH  066%=      5-min Rain = 0
KTIS 160705Z 18007KT 23/16 A3003 RMK A01 T02340159  RH  065%=      5-min Rain = 0
KTIS 160710Z 18007KT 23/16 A3003 RMK A01 T02340159  RH  066%=      5-min Rain = 0
KTIS 160715Z 17007KT 23/16 A3003 RMK A01 T02320159  RH  067%=      5-min Rain = 0
KTIS 160720Z 17007KT 23/16 A3003 RMK A01 T02300159  RH  067%=      5-min Rain = 0
KTIS 160725Z 16007KT 23/16 A3003 RMK A01 T02290161  RH  069%=      5-min Rain = 0
KTIS 160730Z 17007KT 23/16 A3003 RMK A01 T02250161  RH  071%=      5-min Rain = 0
KTIS 160735Z 18006KT 23/16 A3003 RMK A01 T02250160  RH  069%=      5-min Rain = 0
KTIS 160740Z 18007KT 23/16 A3003 RMK A01 T02260160  RH  069%=      5-min Rain = 0
KTIS 160745Z 17006KT 23/16 A3003 RMK A01 T02250161  RH  070%=      5-min Rain = 0
KTIS 160750Z 17006KT 23/16 A3003 RMK A01 T02250161  RH  071%=      5-min Rain = 0
KTIS 160755Z 18006KT 23/16 A3002 RMK A01 T02260160  RH  070%=      5-min Rain = 0
KTIS 160800Z 18006KT 22/16 A3002 RMK A01 T02240161  RH  071%=      5-min Rain = 0
KTIS 160805Z 18006KT 23/16 A3002 RMK A01 T02250161  RH  071%=      5-min Rain = 0
KTIS 160810Z 18006KT 23/16 A3002 RMK A01 T02260162  RH  070%=      5-min Rain = 0
KTIS 160815Z 19006KT 23/16 A3002 RMK A01 T02270161  RH  070%=      5-min Rain = 0
KTIS 160820Z 19005KT 23/16 A3002 RMK A01 T02280161  RH  069%=      5-min Rain = 0
KTIS 160825Z 19004KT 23/16 A3002 RMK A01 T02270161  RH  069%=      5-min Rain = 0
KTIS 160830Z 20005KT 23/16 A3002 RMK A01 T02250160  RH  070%=      5-min Rain = 0
KTIS 160835Z 20004KT 22/16 A3002 RMK A01 T02230160  RH  071%=      5-min Rain = 0
KTIS 160840Z 19004KT 22/16 A3002 RMK A01 T02210160  RH  071%=      5-min Rain = 0
KTIS 160845Z 19005KT 22/16 A3002 RMK A01 T02210160  RH  071%=      5-min Rain = 0
KTIS 160850Z 20006KT 22/16 A3002 RMK A01 T02220159  RH  071%=      5-min Rain = 0
KTIS 160855Z 19006KT 22/16 A3002 RMK A01 T02230158  RH  070%=      5-min Rain = 0
KTIS 160900Z 19007KT 23/16 A3002 RMK A01 T02260157  RH  068%=      5-min Rain = 0
KTIS 160905Z 19006KT 23/16 A3002 RMK A01 T02270157  RH  067%=      5-min Rain = 0
KTIS 160910Z 19007KT 23/16 A3001 RMK A01 T02290156  RH  066%=      5-min Rain = 0
KTIS 160915Z 19007KT 23/15 A3001 RMK A01 T02310154  RH  065%=      5-min Rain = 0
KTIS 160920Z 19007KT 23/15 A3001 RMK A01 T02320153  RH  064%=      5-min Rain = 0
KTIS 160925Z 19007KT 23/15 A3001 RMK A01 T02330153  RH  063%=      5-min Rain = 0
KTIS 160930Z 19007KT 23/15 A3001 RMK A01 T02330152  RH  063%=      5-min Rain = 0
KTIS 160935Z 20008KT 23/15 A3001 RMK A01 T02310152  RH  064%=      5-min Rain = 0
KTIS 160940Z 19007KT 23/15 A3001 RMK A01 T02300151  RH  064%=      5-min Rain = 0
KTIS 160945Z 19007KT 23/15 A3001 RMK A01 T02300151  RH  064%=      5-min Rain = 0
KTIS 160950Z 19007KT 23/15 A3001 RMK A01 T02300150  RH  064%=      5-min Rain = 0
KTIS 160955Z 19007KT 23/15 A3001 RMK A01 T02300149  RH  063%=      5-min Rain = 0
KTIS 161000Z 19007KT 23/15 A3001 RMK A01 T02310149  RH  063%=      5-min Rain = 0
KTIS 161005Z 19007KT 23/15 A3001 RMK A01 T02290150  RH  064%=      5-min Rain = 0
KTIS 161010Z 18008KT 23/15 A3001 RMK A01 T02270151  RH  065%=      5-min Rain = 0
KTIS 161015Z 18008KT 22/15 A3001 RMK A01 T02240151  RH  066%=      5-min Rain = 0
KTIS 161020Z 19007KT 22/15 A3001 RMK A01 T02230151  RH  066%=      5-min Rain = 0
KTIS 161025Z 21006KT 22/15 A3001 RMK A01 T02230151  RH  067%=      5-min Rain = 0
KTIS 161030Z 20006KT 22/15 A3001 RMK A01 T02230151  RH  067%=      5-min Rain = 0
KTIS 161035Z 19006KT 22/15 A3001 RMK A01 T02220151  RH  067%=      5-min Rain = 0
KTIS 161040Z 20006KT 22/15 A3001 RMK A01 T02210152  RH  068%=      5-min Rain = 0
KTIS 161045Z 21005KT 22/15 A3001 RMK A01 T02180152  RH  069%=      5-min Rain = 0
KTIS 161050Z 22005KT 22/15 A3001 RMK A01 T02170152  RH  070%=      5-min Rain = 0
KTIS 161055Z 22006KT 22/15 A3001 RMK A01 T02190152  RH  069%=      5-min Rain = 0
KTIS 161100Z 23006KT 22/15 A3001 RMK A01 T02200152  RH  068%=      5-min Rain = 0
KTIS 161105Z 24007KT 22/15 A3002 RMK A01 T02210152  RH  068%=      5-min Rain = 0
KTIS 161110Z 23008KT 22/15 A3002 RMK A01 T02210151  RH  067%=      5-min Rain = 0
KTIS 161115Z 22007KT 22/15 A3002 RMK A01 T02240150  RH  066%=      5-min Rain = 0
KTIS 161120Z 21007KT 22/15 A3002 RMK A01 T02230150  RH  066%=      5-min Rain = 0
KTIS 161125Z 21007KT 22/15 A3002 RMK A01 T02210151  RH  067%=      5-min Rain = 0
KTIS 161130Z 20007KT 22/15 A3002 RMK A01 T02200151  RH  068%=      5-min Rain = 0
KTIS 161135Z 20007KT 22/15 A3002 RMK A01 T02170151  RH  069%=      5-min Rain = 0
KTIS 161140Z 21007KT 22/15 A3002 RMK A01 T02160151  RH  070%=      5-min Rain = 0
KTIS 161145Z 22007KT 22/15 A3002 RMK A01 T02180152  RH  069%=      5-min Rain = 0
KTIS 161150Z 22007KT 22/15 A3002 RMK A01 T02210153  RH  068%=      5-min Rain = 0
KTIS 161155Z 22008KT 22/15 A3002 RMK A01 T02230153  RH  067%=      5-min Rain = 0
KTIS 161200Z 22008KT 23/15 A3002 RMK A01 T02270154  RH  066%=      5-min Rain = 0
KTIS 161205Z 23009KT 23/15 A3002 RMK A01 T02280154  RH  066%=      5-min Rain = 0
KTIS 161210Z 23008KT 23/15 A3002 RMK A01 T02300154  RH  065%=      5-min Rain = 0
KTIS 161215Z 23009KT 23/15 A3002 RMK A01 T02320154  RH  064%=      5-min Rain = 0
KTIS 161220Z 23009KT 23/16 A3002 RMK A01 T02340155  RH  064%=      5-min Rain = 0
KTIS 161225Z 23010KT 24/16 A3002 RMK A01 T02360155  RH  063%=      5-min Rain = 0
KTIS 161230Z 23010KT 24/16 A3003 RMK A01 T02380155  RH  063%=      5-min Rain = 0
KTIS 161235Z 23011KT 24/16 A3003 RMK A01 T02400155  RH  062%=      5-min Rain = 0
KTIS 161240Z 23012G17KT 24/16 A3003 RMK A01 T02430155  RH  061%=      5-min Rain = 0
KTIS 161245Z 23013G19KT 25/16 A3003 RMK A01 T02450156  RH  060%=      5-min Rain = 0
KTIS 161250Z 23013KT 25/16 A3003 RMK A01 T02470157  RH  060%=      5-min Rain = 0
KTIS 161255Z 23013KT 25/16 A3003 RMK A01 T02490157  RH  059%=      5-min Rain = 0
KTIS 161300Z 23013KT 25/16 A3003 RMK A01 T02520158  RH  059%=      5-min Rain = 0
KTIS 161305Z 22012KT 25/16 A3003 RMK A01 T02540159  RH  058%=      5-min Rain = 0
KTIS 161310Z 21010KT 26/16 A3004 RMK A01 T02550160  RH  058%=      5-min Rain = 0
KTIS 161315Z 19009KT 26/16 A3004 RMK A01 T02570161  RH  058%=      5-min Rain = 0
KTIS 161320Z 20011KT 25/16 A3004 RMK A01 T02540161  RH  059%=      5-min Rain = 0
KTIS 161325Z 20011KT 26/16 A3004 RMK A01 T02550161  RH  059%=      5-min Rain = 0
KTIS 161330Z 19010KT 25/16 A3004 RMK A01 T02540161  RH  059%=      5-min Rain = 0
KTIS 161335Z 19010KT 25/16 A3005 RMK A01 T02540162  RH  059%=      5-min Rain = 0
KTIS 161340Z 20010KT 25/16 A3005 RMK A01 T02540161  RH  059%=      5-min Rain = 0
KTIS 161345Z 20012KT 25/16 A3005 RMK A01 T02540161  RH  059%=      5-min Rain = 0
KTIS 161350Z 19011KT 26/16 A3005 RMK A01 T02560161  RH  059%=      5-min Rain = 0
KTIS 161355Z 19011KT 26/16 A3005 RMK A01 T02610164  RH  058%=      5-min Rain = 0
KTIS 161400Z 19013KT 26/16 A3005 RMK A01 T02620163  RH  057%=      5-min Rain = 0
KTIS 161405Z 19013KT 26/16 A3005 RMK A01 T02610163  RH  057%=      5-min Rain = 0
KTIS 161410Z 19012G18KT 26/16 A3005 RMK A01 T02640164  RH  057%=      5-min Rain = 0
KTIS 161415Z 20013KT 27/17 A3006 RMK A01 T02660165  RH  056%=      5-min Rain = 0
KTIS 161420Z 20012G18KT 27/17 A3006 RMK A01 T02690167  RH  056%=      5-min Rain = 0
KTIS 161425Z 20011KT 27/17 A3006 RMK A01 T02700169  RH  057%=      5-min Rain = 0
KTIS 161430Z 20013KT 27/17 A3006 RMK A01 T02700168  RH  056%=      5-min Rain = 0
KTIS 161435Z 21013G18KT 27/17 A3006 RMK A01 T02740167  RH  055%=      5-min Rain = 0
KTIS 161440Z 21013KT 28/17 A3006 RMK A01 T02770168  RH  054%=      5-min Rain = 0
KTIS 161445Z 22015KT 28/17 A3006 RMK A01 T02800166  RH  052%=      5-min Rain = 0
KTIS 161450Z 21014G20KT 28/17 A3006 RMK A01 T02830166  RH  051%=      5-min Rain = 0
KTIS 161455Z 22014G19KT 29/17 A3006 RMK A01 T02880165  RH  050%=      5-min Rain = 0
KTIS 161500Z 22016KT 29/16 A3006 RMK A01 T02880163  RH  049%=      5-min Rain = 0
KTIS 161505Z 22014KT 29/17 A3006 RMK A01 T02900165  RH  049%=      5-min Rain = 0
KTIS 161510Z 22014G19KT 29/17 A3006 RMK A01 T02930165  RH  048%=      5-min Rain = 0
KTIS 161515Z 22013KT 30/17 A3007 RMK A01 T02960166  RH  048%=      5-min Rain = 0
KTIS 161520Z 22013KT 30/17 A3007 RMK A01 T02990165  RH  047%=      5-min Rain = 0
KTIS 161525Z 21014G20KT 30/16 A3007 RMK A01 T02980164  RH  047%=      5-min Rain = 0
KTIS 161530Z 21013G18KT 30/17 A3007 RMK A01 T03010165  RH  046%=      5-min Rain = 0
KTIS 161535Z 22012KT 31/17 A3007 RMK A01 T03050167  RH  046%=      5-min Rain = 0
KTIS 161540Z 21014G19KT 31/17 A3007 RMK A01 T03070167  RH  045%=      5-min Rain = 0
KTIS 161545Z 20015KT 31/17 A3007 RMK A01 T03070166  RH  045%=      5-min Rain = 0
KTIS 161550Z 20015KT 31/17 A3007 RMK A01 T03090166  RH  045%=      5-min Rain = 0
KTIS 161555Z 21013G19KT 31/17 A3007 RMK A01 T03110167  RH  044%=      5-min Rain = 0
KTIS 161600Z 21014G19KT 31/17 A3007 RMK A01 T03140167  RH  043%=      5-min Rain = 0
KTIS 161605Z 22013KT 32/17 A3007 RMK A01 T03160166  RH  043%=      5-min Rain = 0
KTIS 161610Z 22013G19KT 32/17 A3007 RMK A01 T03180165  RH  042%=      5-min Rain = 0
KTIS 161615Z 22012KT 32/17 A3007 RMK A01 T03170165  RH  042%=      5-min Rain = 0
KTIS 161620Z 21014G19KT 32/17 A3007 RMK A01 T03200166  RH  041%=      5-min Rain = 0
KTIS 161625Z 21016G21KT 32/16 A3007 RMK A01 T03180162  RH  041%=      5-min Rain = 0
KTIS 161630Z 21015G20KT 32/16 A3007 RMK A01 T03210162  RH  040%=      5-min Rain = 0
KTIS 161635Z 22014KT 32/16 A3007 RMK A01 T03240164  RH  040%=      5-min Rain = 0
KTIS 161640Z 22015KT 33/16 A3007 RMK A01 T03250164  RH  040%=      5-min Rain = 0
KTIS 161645Z 21015KT 33/16 A3007 RMK A01 T03260162  RH  039%=      5-min Rain = 0
KTIS 161650Z 22014G19KT 33/16 A3007 RMK A01 T03270162  RH  039%=      5-min Rain = 0
KTIS 161655Z 20014G19KT 33/16 A3007 RMK A01 T03280161  RH  039%=      5-min Rain = 0
KTIS 161700Z 22014KT 33/16 A3007 RMK A01 T03310161  RH  038%=      5-min Rain = 0
KTIS 161705Z 21013G18KT 33/16 A3007 RMK A01 T03330162  RH  038%=      5-min Rain = 0
KTIS 161710Z 20016KT 33/16 A3007 RMK A01 T03330159  RH  037%=      5-min Rain = 0
KTIS 161715Z 21013G20KT 33/16 A3007 RMK A01 T03340160  RH  037%=      5-min Rain = 0
KTIS 161720Z 21015G21KT 34/16 A3007 RMK A01 T03360159  RH  036%=      5-min Rain = 0
KTIS 161725Z 23014KT 34/15 A3006 RMK A01 T03390154  RH  035%=      5-min Rain = 0
KTIS 161730Z 20015KT 34/16 A3006 RMK A01 T03390156  RH  035%=      5-min Rain = 0
KTIS 161735Z 20015KT 34/15 A3006 RMK A01 T03400151  RH  034%=      5-min Rain = 0
KTIS 161740Z 20015G20KT 34/15 A3006 RMK A01 T03430151  RH  033%=      5-min Rain = 0
KTIS 161745Z 21014G20KT 34/15 A3006 RMK A01 T03420153  RH  034%=      5-min Rain = 0
KTIS 161750Z 21014G19KT 35/15 A3006 RMK A01 T03450150  RH  033%=      5-min Rain = 0
KTIS 161755Z 21014G20KT 34/15 A3006 RMK A01 T03430151  RH  033%=      5-min Rain = 0
KTIS 161800Z 22014G20KT 34/15 A3006 RMK A01 T03430150  RH  033%=      5-min Rain = 0
KTIS 161805Z 20012KT 35/15 A3006 RMK A01 T03450149  RH  032%=      5-min Rain = 0
KTIS 161810Z 21013KT 35/15 A3006 RMK A01 T03480151  RH  032%=      5-min Rain = 0
KTIS 161815Z 22013G18KT 35/15 A3006 RMK A01 T03500150  RH  032%=      5-min Rain = 0
KTIS 161820Z 21012G18KT 35/15 A3006 RMK A01 T03530150  RH  031%=      5-min Rain = 0
KTIS 161825Z 19014G19KT 35/15 A3006 RMK A01 T03540151  RH  031%=      5-min Rain = 0
KTIS 161830Z 20013G19KT 35/15 A3006 RMK A01 T03530148  RH  031%=      5-min Rain = 0
KTIS 161835Z 19014G20KT 35/15 A3006 RMK A01 T03540148  RH  031%=      5-min Rain = 0
KTIS 161840Z 19012KT 35/14 A3005 RMK A01 T03540143  RH  029%=      5-min Rain = 0
KTIS 161845Z 19013G19KT 36/14 A3005 RMK A01 T03560142  RH  029%=      5-min Rain = 0
KTIS 161850Z 20014G20KT 35/14 A3005 RMK A01 T03530141  RH  029%=      5-min Rain = 0
KTIS 161855Z 18013KT 36/14 A3005 RMK A01 T03550143  RH  029%=      5-min Rain = 0
KTIS 161900Z 17012G18KT 36/15 A3005 RMK A01 T03570150  RH  030%=      5-min Rain = 0
KTIS 161905Z 18016G22KT 36/15 A3004 RMK A01 T03570146  RH  030%=      5-min Rain = 0
KTIS 161910Z 17015G20KT 36/14 A3004 RMK A01 T03550141  RH  029%=      5-min Rain = 0
KTIS 161915Z 18014G20KT 36/14 A3004 RMK A01 T03600139  RH  028%=      5-min Rain = 0
KTIS 161920Z 20012KT 36/13 A3004 RMK A01 T03600134  RH  027%=      5-min Rain = 0
KTIS 161925Z 20015G20KT 36/13 A3004 RMK A01 T03620125  RH  025%=      5-min Rain = 0
KTIS 161930Z 18013G19KT 36/13 A3004 RMK A01 T03620128  RH  026%=      5-min Rain = 0
KTIS 161935Z 19015KT 36/13 A3003 RMK A01 T03630131  RH  026%=      5-min Rain = 0
KTIS 161940Z 18013G23KT 36/14 A3003 RMK A01 T03640139  RH  027%=      5-min Rain = 0
KTIS 161945Z 19017G23KT 36/12 A3003 RMK A01 T03630119  RH  024%=      5-min Rain = 0
KTIS 161950Z 21012KT 36/13 A3003 RMK A01 T03610129  RH  026%=      5-min Rain = 0
KTIS 161955Z 17013G19KT 36/14 A3003 RMK A01 T03620139  RH  028%=      5-min Rain = 0
KTIS 162000Z 18014G19KT 36/14 A3002 RMK A01 T03640137  RH  027%=      5-min Rain = 0
KTIS 162005Z 20013G18KT 37/13 A3002 RMK A01 T03650134  RH  026%=      5-min Rain = 0
KTIS 162010Z 18015G21KT 36/13 A3002 RMK A01 T03620131  RH  026%=      5-min Rain = 0
KTIS 162015Z 18017G24KT 36/12 A3002 RMK A01 T03630121  RH  024%=      5-min Rain = 0
KTIS 162020Z 19014G21KT 36/13 A3002 RMK A01 T03640126  RH  025%=      5-min Rain = 0
KTIS 162025Z 19014G23KT 36/13 A3002 RMK A01 T03640133  RH  026%=      5-min Rain = 0
KTIS 162030Z 18014G19KT 37/13 A3002 RMK A01 T03660132  RH  026%=      5-min Rain = 0
KTIS 162035Z 18015G23KT 37/13 A3002 RMK A01 T03660130  RH  025%=      5-min Rain = 0
KTIS 162040Z 19015G20KT 36/13 A3002 RMK A01 T03640129  RH  025%=      5-min Rain = 0
KTIS 162045Z 19013G21KT 37/13 A3002 RMK A01 T03660128  RH  025%=      5-min Rain = 0
KTIS 162050Z 18015G20KT 36/14 A3001 RMK A01 T03630135  RH  027%=      5-min Rain = 0
KTIS 162055Z 17015G22KT 36/14 A3001 RMK A01 T03630139  RH  028%=      5-min Rain = 0
KTIS 162100Z 17016G23KT 36/14 A3001 RMK A01 T03610139  RH  028%=      5-min Rain = 0
KTIS 162105Z 18018G26KT 36/13 A3001 RMK A01 T03620133  RH  026%=      5-min Rain = 0
KTIS 162110Z 18014G24KT 36/14 A30 RMK A01 T03620135  RH  027%=      5-min Rain = 0
KTIS 162115Z 18016G25KT 36/14 A30 RMK A01 T03640140  RH  027%=      5-min Rain = 0
KTIS 162120Z 18016G21KT 37/13 A30 RMK A01 T03650127  RH  025%=      5-min Rain = 0
KTIS 162125Z 19013G22KT 37/13 A30 RMK A01 T03650128  RH  025%=      5-min Rain = 0
KTIS 162130Z 18014G21KT 37/13 A30 RMK A01 T03650132  RH  026%=      5-min Rain = 0
KTIS 162135Z 17012G21KT 36/13 A30 RMK A01 T03630132  RH  026%=      5-min Rain = 0
KTIS 162140Z 19015G22KT 37/13 A30 RMK A01 T03650129  RH  025%=      5-min Rain = 0
KTIS 162145Z 17016KT 36/14 A2999 RMK A01 T03610141  RH  028%=      5-min Rain = 0
KTIS 162150Z 17014G23KT 36/14 A2999 RMK A01 T03590141  RH  028%=      5-min Rain = 0
KTIS 162155Z 17016G22KT 36/14 A2999 RMK A01 T03590138  RH  028%=      5-min Rain = 0
KTIS 162200Z 18014G19KT 36/13 A2999 RMK A01 T03620132  RH  026%=      5-min Rain = 0
KTIS 162205Z 18015G20KT 37/13 A2999 RMK A01 T03650132  RH  026%=      5-min Rain = 0
KTIS 162210Z 19015G20KT 37/13 A2998 RMK A01 T03650134  RH  026%=      5-min Rain = 0
KTIS 162215Z 18014G21KT 36/14 A2998 RMK A01 T03620139  RH  027%=      5-min Rain = 0
KTIS 162220Z 19015G20KT 37/14 A2998 RMK A01 T03650137  RH  027%=      5-min Rain = 0
KTIS 162225Z 17014G20KT 36/14 A2998 RMK A01 T03580138  RH  028%=      5-min Rain = 0
KTIS 162230Z 18015G21KT 36/14 A2998 RMK A01 T03590136  RH  028%=      5-min Rain = 0
KTIS 162235Z 18015G21KT 36/13 A2998 RMK A01 T03630130  RH  026%=      5-min Rain = 0
KTIS 162240Z 19012KT 36/14 A2998 RMK A01 T03630136  RH  027%=      5-min Rain = 0
KTIS 162245Z 16015G21KT 36/15 A2998 RMK A01 T03580145  RH  029%=      5-min Rain = 0
KTIS 162250Z 19015G20KT 35/14 A2998 RMK A01 T03530139  RH  029%=      5-min Rain = 0
KTIS 162255Z 18015G20KT 36/14 A2997 RMK A01 T03630141  RH  028%=      5-min Rain = 0
KTIS 162300Z 18015KT 36/14 A2997 RMK A01 T03610141  RH  028%=      5-min Rain = 0
KTIS 162305Z 19014G19KT 36/14 A2997 RMK A01 T03600138  RH  028%=      5-min Rain = 0
KTIS 162310Z 18015KT 36/14 A2997 RMK A01 T03570139  RH  028%=      5-min Rain = 0
KTIS 162315Z 17015KT 36/14 A2997 RMK A01 T03580140  RH  028%=      5-min Rain = 0
KTIS 162320Z 18014KT 36/14 A2997 RMK A01 T03580139  RH  028%=      5-min Rain = 0
KTIS 162325Z 19013G20KT 36/14 A2997 RMK A01 T03620142  RH  028%=      5-min Rain = 0
KTIS 162330Z 18016G21KT 36/14 A2997 RMK A01 T03600137  RH  027%=      5-min Rain = 0
KTIS 162335Z 17015G22KT 36/14 A2997 RMK A01 T03560138  RH  028%=      5-min Rain = 0
KTIS 162340Z 18014G19KT 35/14 A2997 RMK A01 T03530137  RH  028%=      5-min Rain = 0
KTIS 162345Z 18015G21KT 36/13 A2997 RMK A01 T03560134  RH  028%=      5-min Rain = 0
KTIS 162350Z 18014KT 36/14 A2997 RMK A01 T03560136  RH  028%=      5-min Rain = 0
KTIS 162355Z 18015KT 36/14 A2997 RMK A01 T03550135  RH  028%=      5-min Rain = 0
KTIS 170000Z 18014G19KT 35/13 A2997 RMK A01 T03530130  RH  027%=      5-min Rain = 0
KTIS 170005Z 18015KT 35/13 A2997 RMK A01 T03530129  RH  027%=      5-min Rain = 0
KTIS 170010Z 17014KT 35/13 A2998 RMK A01 T03500131  RH  028%=      5-min Rain = 0
KTIS 170015Z 17013G18KT 35/13 A2998 RMK A01 T03490132  RH  028%=      5-min Rain = 0
KTIS 170020Z 18014KT 35/13 A2998 RMK A01 T03500130  RH  028%=      5-min Rain = 0
KTIS 170025Z 17014KT 35/13 A2998 RMK A01 T03470132  RH  029%=      5-min Rain = 0
KTIS 170030Z 17014KT 35/13 A2998 RMK A01 T03450129  RH  028%=      5-min Rain = 0
KTIS 170035Z 18013KT 35/13 A2998 RMK A01 T03450131  RH  029%=      5-min Rain = 0
KTIS 170040Z 17013KT 35/13 A2999 RMK A01 T03450131  RH  029%=      5-min Rain = 0
KTIS 170045Z 17013KT 34/13 A2999 RMK A01 T03420131  RH  029%=      5-min Rain = 0
KTIS 170050Z 17012KT 34/13 A2999 RMK A01 T03410132  RH  030%=      5-min Rain = 0
KTIS 170055Z 16013KT 34/13 A2999 RMK A01 T03370134  RH  030%=      5-min Rain = 0
KTIS 170100Z 15012KT 33/13 A2999 RMK A01 T03340132  RH  031%=      5-min Rain = 0
KTIS 170105Z 15014KT 33/13 A2999 RMK A01 T03310130  RH  031%=      5-min Rain = 0
KTIS 170110Z 15013G18KT 33/13 A2999 RMK A01 T03300127  RH  030%=      5-min Rain = 0
KTIS 170115Z 15011KT 33/13 A2999 RMK A01 T03270129  RH  031%=      5-min Rain = 0
KTIS 170120Z 15013KT 33/13 A2999 RMK A01 T03250125  RH  031%=      5-min Rain = 0
KTIS 170125Z 15012KT 32/13 A30 RMK A01 T03240126  RH  031%=      5-min Rain = 0
KTIS 170130Z 15012KT 32/13 A30 RMK A01 T03220126  RH  032%=      5-min Rain = 0
KTIS 170135Z 15011KT 32/13 A30 RMK A01 T03190126  RH  032%=      5-min Rain = 0
KTIS 170140Z 15010KT 32/13 A30 RMK A01 T03160127  RH  033%=      5-min Rain = 0
KTIS 170145Z 15010KT 31/13 A3001 RMK A01 T03120126  RH  034%=      5-min Rain = 0
KTIS 170150Z 15010KT 31/13 A3001 RMK A01 T03090126  RH  034%=      5-min Rain = 0
KTIS 170155Z 15009KT 31/13 A3001 RMK A01 T03070125  RH  034%=      5-min Rain = 0
KTIS 170200Z 14009KT 30/13 A3002 RMK A01 T03020126  RH  035%=      5-min Rain = 0
KTIS 170205Z 15009KT 30/13 A3002 RMK A01 T02980126  RH  036%=      5-min Rain = 0
KTIS 170210Z 14008KT 29/13 A3002 RMK A01 T02940127  RH  037%=      5-min Rain = 0
KTIS 170215Z 14008KT 29/13 A3002 RMK A01 T02890128  RH  039%=      5-min Rain = 0
KTIS 170220Z 14009KT 29/13 A3002 RMK A01 T02890127  RH  038%=      5-min Rain = 0
KTIS 170225Z 14009KT 29/13 A3002 RMK A01 T02910127  RH  038%=      5-min Rain = 0
KTIS 170230Z 14009KT 29/13 A3002 RMK A01 T02910128  RH  038%=      5-min Rain = 0
KTIS 170235Z 15009KT 29/13 A3002 RMK A01 T02920127  RH  037%=      5-min Rain = 0
KTIS 170240Z 15009KT 29/13 A3003 RMK A01 T02920127  RH  038%=      5-min Rain = 0
KTIS 170245Z 15009KT 29/13 A3003 RMK A01 T02900127  RH  038%=      5-min Rain = 0
KTIS 170250Z 14009KT 29/13 A3003 RMK A01 T02900126  RH  038%=      5-min Rain = 0
KTIS 170255Z 15009KT 29/13 A3003 RMK A01 T02910125  RH  037%=      5-min Rain = 0
KTIS 170300Z 14008KT 29/13 A3003 RMK A01 T02910125  RH  037%=      5-min Rain = 0
KTIS 170305Z 14008KT 29/13 A3004 RMK A01 T02910125  RH  037%=      5-min Rain = 0
KTIS 170310Z 14007KT 29/12 A3004 RMK A01 T02910124  RH  037%=      5-min Rain = 0
KTIS 170315Z 13008KT 29/12 A3004 RMK A01 T02910124  RH  037%=      5-min Rain = 0
KTIS 170320Z 13007KT 29/13 A3004 RMK A01 T02900125  RH  037%=      5-min Rain = 0
KTIS 170325Z 13007KT 29/12 A3004 RMK A01 T02900124  RH  037%=      5-min Rain = 0
KTIS 170330Z 13007KT 29/12 A3004 RMK A01 T02880124  RH  038%=      5-min Rain = 0
KTIS 170335Z 14008KT 29/12 A3004 RMK A01 T02860123  RH  038%=      5-min Rain = 0
KTIS 170340Z 14009KT 29/12 A3004 RMK A01 T02860121  RH  038%=      5-min Rain = 0
KTIS 170345Z 15009KT 28/12 A3004 RMK A01 T02830122  RH  038%=      5-min Rain = 0
KTIS 170350Z 14009KT 28/12 A3004 RMK A01 T02800121  RH  039%=      5-min Rain = 0
KTIS 170355Z 14007KT 28/12 A3004 RMK A01 T02770121  RH  039%=      5-min Rain = 0
KTIS 170400Z 13006KT 28/12 A3004 RMK A01 T02760121  RH  040%=      5-min Rain = 0
KTIS 170405Z 12006KT 28/12 A3005 RMK A01 T02750122  RH  040%=      5-min Rain = 0
KTIS 170410Z 06005KT 27/12 A3005 RMK A01 T02690121  RH  041%=      5-min Rain = 0
KTIS 170415Z 06007KT 26/12 A3005 RMK A01 T02600123  RH  044%=      5-min Rain = 0
KTIS 170420Z 08008KT 26/13 A3005 RMK A01 T02570125  RH  046%=      5-min Rain = 0
KTIS 170425Z 10008KT 26/12 A3005 RMK A01 T02610122  RH  044%=      5-min Rain = 0
KTIS 170430Z 08007KT 27/12 A3005 RMK A01 T02650122  RH  043%=      5-min Rain = 0
KTIS 170435Z 08007KT 27/13 A3005 RMK A01 T02660128  RH  044%=      5-min Rain = 0
KTIS 170440Z 09006G12KT 27/13 A3005 RMK A01 T02670130  RH  044%=      5-min Rain = 0
KTIS 170445Z 11005KT 27/13 A3005 RMK A01 T02700131  RH  044%=      5-min Rain = 0
KTIS 170450Z 12005KT 27/13 A3005 RMK A01 T02690130  RH  044%=      5-min Rain = 0
KTIS 170455Z 14005KT 27/13 A3005 RMK A01 T02650129  RH  045%=      5-min Rain = 0

Page generated in 0.0093 seconds.